BTK6080 WIII-YPPH
Flight info
| Callsign | BTK6080 |
|---|---|
| Flight time | N/A |
| Altitude | 35000 |
| Route | RENDA1C/07R RENDA B469 TOPIR L514 AVPAL Q38 JULIM |
| Aircraft | A320/M-SDE3FGHIRWY/LB1 |
Departure
| Time | N/A |
|---|---|
| Airport | Soekarno-Hatta International Airport (WIII) |
Arrival
| Time | 2026-05-06 13:45 |
|---|---|
| Airport | Perth International Airport (YPPH) |
| Time | Latitude | Longitude | Altitude | Speed | Heading |
|---|---|---|---|---|---|
| 2026-05-06 12:45 | -25.99121 | 114.52373 | 35210 ft | 461 kts | 152° |
| 2026-05-06 12:46 | -26.01755 | 114.54414 | 35215 ft | 461 kts | 152° |
| 2026-05-06 12:46 | -26.07016 | 114.58499 | 35212 ft | 461 kts | 152° |
| 2026-05-06 12:47 | -26.12239 | 114.62573 | 35213 ft | 461 kts | 152° |
| 2026-05-06 12:47 | -26.17499 | 114.66669 | 35237 ft | 461 kts | 152° |
| 2026-05-06 12:48 | -26.22768 | 114.70774 | 35239 ft | 461 kts | 152° |
| 2026-05-06 12:48 | -26.27996 | 114.74845 | 35236 ft | 461 kts | 152° |
| 2026-05-06 12:49 | -26.33258 | 114.78950 | 35241 ft | 461 kts | 151° |
| 2026-05-06 12:49 | -26.38491 | 114.83053 | 35240 ft | 461 kts | 151° |
| 2026-05-06 12:50 | -26.43749 | 114.87175 | 35250 ft | 460 kts | 151° |
| 2026-05-06 12:50 | -26.48970 | 114.91255 | 35250 ft | 460 kts | 151° |
| 2026-05-06 12:51 | -26.54220 | 114.95374 | 35249 ft | 460 kts | 151° |
| 2026-05-06 12:51 | -26.59432 | 114.99472 | 35249 ft | 459 kts | 151° |
| 2026-05-06 12:52 | -26.64668 | 115.03594 | 35270 ft | 459 kts | 150° |
| 2026-05-06 12:52 | -26.69872 | 115.07706 | 35266 ft | 459 kts | 150° |
| 2026-05-06 12:53 | -26.75101 | 115.11829 | 35263 ft | 459 kts | 150° |
| 2026-05-06 12:53 | -26.80339 | 115.15954 | 35267 ft | 459 kts | 150° |
| 2026-05-06 12:54 | -26.85546 | 115.20058 | 35260 ft | 459 kts | 150° |
| 2026-05-06 12:54 | -26.90768 | 115.24198 | 35285 ft | 459 kts | 150° |
| 2026-05-06 12:55 | -26.95993 | 115.28332 | 35275 ft | 459 kts | 150° |
| 2026-05-06 12:55 | -27.01190 | 115.32455 | 35282 ft | 459 kts | 150° |
| 2026-05-06 12:56 | -27.06383 | 115.36577 | 35282 ft | 459 kts | 150° |
| 2026-05-06 12:56 | -27.11597 | 115.40720 | 35301 ft | 459 kts | 149° |
| 2026-05-06 12:57 | -27.16821 | 115.44872 | 35307 ft | 458 kts | 149° |
| 2026-05-06 12:57 | -27.21993 | 115.48996 | 35302 ft | 458 kts | 149° |
| 2026-05-06 12:58 | -27.27194 | 115.53146 | 35298 ft | 458 kts | 149° |
| 2026-05-06 12:58 | -27.32399 | 115.57300 | 35292 ft | 457 kts | 149° |
| 2026-05-06 12:59 | -27.37579 | 115.61409 | 35298 ft | 455 kts | 152° |
| 2026-05-06 12:59 | -27.43106 | 115.64709 | 35307 ft | 451 kts | 158° |
| 2026-05-06 13:00 | -27.48707 | 115.67909 | 35303 ft | 451 kts | 158° |
| 2026-05-06 13:00 | -27.54296 | 115.71109 | 35303 ft | 451 kts | 158° |
| 2026-05-06 13:01 | -27.59902 | 115.74335 | 35319 ft | 451 kts | 157° |
| 2026-05-06 13:01 | -27.65472 | 115.77540 | 35321 ft | 451 kts | 157° |
| 2026-05-06 13:02 | -27.71080 | 115.80761 | 35317 ft | 451 kts | 157° |
| 2026-05-06 13:02 | -27.76641 | 115.83967 | 35319 ft | 450 kts | 157° |
| 2026-05-06 13:03 | -27.82232 | 115.87190 | 35316 ft | 450 kts | 157° |
| 2026-05-06 13:03 | -27.87811 | 115.90411 | 35330 ft | 450 kts | 157° |
| 2026-05-06 13:04 | -27.93358 | 115.93611 | 35329 ft | 450 kts | 156° |
| 2026-05-06 13:04 | -27.98938 | 115.96831 | 35331 ft | 449 kts | 156° |
| 2026-05-06 13:05 | -28.04519 | 116.00063 | 35333 ft | 449 kts | 156° |
| 2026-05-06 13:05 | -28.10072 | 116.03299 | 35323 ft | 449 kts | 156° |
| 2026-05-06 13:06 | -28.15610 | 116.06515 | 35330 ft | 449 kts | 156° |
| 2026-05-06 13:06 | -28.21188 | 116.09753 | 35328 ft | 449 kts | 156° |
| 2026-05-06 13:07 | -28.26766 | 116.12999 | 35327 ft | 449 kts | 156° |
| 2026-05-06 13:07 | -28.32299 | 116.16226 | 35336 ft | 449 kts | 156° |
| 2026-05-06 13:08 | -28.37870 | 116.19480 | 35336 ft | 449 kts | 156° |
| 2026-05-06 13:08 | -28.43411 | 116.22717 | 35337 ft | 449 kts | 156° |
| 2026-05-06 13:09 | -28.48972 | 116.25963 | 35340 ft | 449 kts | 156° |
| 2026-05-06 13:09 | -28.54534 | 116.29216 | 35350 ft | 449 kts | 156° |
| 2026-05-06 13:10 | -28.60070 | 116.32464 | 35353 ft | 449 kts | 156° |
| 2026-05-06 13:10 | -28.65629 | 116.35725 | 35350 ft | 449 kts | 156° |
| 2026-05-06 13:11 | -28.71157 | 116.38972 | 35356 ft | 448 kts | 156° |
| 2026-05-06 13:11 | -28.76717 | 116.42244 | 35354 ft | 448 kts | 156° |
| 2026-05-06 13:12 | -28.82247 | 116.45496 | 35365 ft | 448 kts | 155° |
| 2026-05-06 13:12 | -28.87759 | 116.48750 | 35369 ft | 448 kts | 155° |
| 2026-05-06 13:13 | -28.93308 | 116.52030 | 35369 ft | 448 kts | 155° |
| 2026-05-06 13:13 | -28.98850 | 116.55304 | 35369 ft | 448 kts | 155° |
| 2026-05-06 13:14 | -29.04359 | 116.58561 | 35379 ft | 447 kts | 155° |
| 2026-05-06 13:14 | -29.09868 | 116.61829 | 35379 ft | 447 kts | 155° |
| 2026-05-06 13:15 | -29.15441 | 116.65050 | 35382 ft | 445 kts | 160° |
| 2026-05-06 13:15 | -29.21366 | 116.66679 | 35374 ft | 439 kts | 178° |
| 2026-05-06 13:16 | -29.27466 | 116.66603 | 35378 ft | 437 kts | 183° |
| 2026-05-06 13:16 | -29.33521 | 116.66435 | 35368 ft | 437 kts | 183° |
| 2026-05-06 13:17 | -29.39634 | 116.66281 | 35378 ft | 437 kts | 183° |
| 2026-05-06 13:17 | -29.45711 | 116.66127 | 35377 ft | 438 kts | 183° |
| 2026-05-06 13:18 | -29.51781 | 116.65971 | 35387 ft | 438 kts | 183° |
| 2026-05-06 13:18 | -29.57891 | 116.65803 | 35392 ft | 438 kts | 183° |
| 2026-05-06 13:19 | -29.63966 | 116.65635 | 35395 ft | 438 kts | 183° |
| 2026-05-06 13:19 | -29.70066 | 116.65475 | 35395 ft | 438 kts | 182° |
| 2026-05-06 13:20 | -29.76141 | 116.65315 | 35394 ft | 438 kts | 182° |
| 2026-05-06 13:20 | -29.82234 | 116.65151 | 35404 ft | 438 kts | 182° |
| 2026-05-06 13:21 | -29.87302 | 116.65010 | 35406 ft | 438 kts | 182° |
| 2026-05-06 13:21 | -29.93409 | 116.64848 | 35405 ft | 438 kts | 182° |
| 2026-05-06 13:22 | -29.99509 | 116.64690 | 35412 ft | 438 kts | 182° |
| 2026-05-06 13:22 | -30.05581 | 116.64525 | 35413 ft | 438 kts | 182° |
| 2026-05-06 13:23 | -30.11651 | 116.64360 | 35419 ft | 438 kts | 182° |
| 2026-05-06 13:23 | -30.17759 | 116.64197 | 35422 ft | 438 kts | 182° |
| 2026-05-06 13:24 | -30.23861 | 116.64025 | 35429 ft | 438 kts | 182° |
| 2026-05-06 13:24 | -30.29932 | 116.63859 | 35308 ft | 439 kts | 182° |
| 2026-05-06 13:24 | -30.32992 | 116.63778 | 35063 ft | 437 kts | 182° |
| 2026-05-06 13:25 | -30.36044 | 116.63698 | 34277 ft | 441 kts | 182° |
| 2026-05-06 13:25 | -30.39098 | 116.63614 | 33337 ft | 444 kts | 182° |
| 2026-05-06 13:25 | -30.42209 | 116.63530 | 32334 ft | 448 kts | 181° |
| 2026-05-06 13:25 | -30.45353 | 116.63449 | 31370 ft | 451 kts | 181° |
| 2026-05-06 13:26 | -30.48433 | 116.63368 | 30835 ft | 445 kts | 181° |
| 2026-05-06 13:26 | -30.51513 | 116.63283 | 30133 ft | 441 kts | 181° |
| 2026-05-06 13:26 | -30.54569 | 116.63072 | 29472 ft | 435 kts | 187° |
| 2026-05-06 13:26 | -30.57517 | 116.62326 | 28819 ft | 430 kts | 197° |
| 2026-05-06 13:27 | -30.60351 | 116.61230 | 27853 ft | 432 kts | 198° |
| 2026-05-06 13:27 | -30.63226 | 116.60112 | 26917 ft | 435 kts | 198° |
| 2026-05-06 13:27 | -30.66076 | 116.59002 | 25940 ft | 437 kts | 198° |
| 2026-05-06 13:27 | -30.68920 | 116.57898 | 24966 ft | 425 kts | 198° |
| 2026-05-06 13:28 | -30.71707 | 116.56819 | 24079 ft | 414 kts | 198° |
| 2026-05-06 13:28 | -30.74416 | 116.55769 | 23533 ft | 406 kts | 197° |
| 2026-05-06 13:28 | -30.77051 | 116.54746 | 23015 ft | 400 kts | 197° |
| 2026-05-06 13:28 | -30.79676 | 116.53727 | 22520 ft | 394 kts | 197° |
| 2026-05-06 13:29 | -30.82261 | 116.52722 | 22029 ft | 388 kts | 197° |
| 2026-05-06 13:29 | -30.84811 | 116.51727 | 21549 ft | 383 kts | 197° |
| 2026-05-06 13:29 | -30.87324 | 116.50746 | 21076 ft | 379 kts | 197° |
| 2026-05-06 13:29 | -30.89784 | 116.49785 | 20597 ft | 375 kts | 197° |
| 2026-05-06 13:30 | -30.92252 | 116.48819 | 20115 ft | 372 kts | 197° |
| 2026-05-06 13:30 | -30.94707 | 116.47860 | 19628 ft | 370 kts | 197° |
| 2026-05-06 13:30 | -30.97107 | 116.46922 | 19174 ft | 369 kts | 197° |
| 2026-05-06 13:30 | -30.99605 | 116.45948 | 18612 ft | 384 kts | 197° |
| 2026-05-06 13:31 | -31.02161 | 116.44949 | 17935 ft | 389 kts | 197° |
| 2026-05-06 13:31 | -31.04761 | 116.43931 | 16940 ft | 396 kts | 197° |
| 2026-05-06 13:31 | -31.07362 | 116.42911 | 16387 ft | 391 kts | 197° |
| 2026-05-06 13:31 | -31.09939 | 116.41899 | 15831 ft | 387 kts | 197° |
| 2026-05-06 13:32 | -31.12448 | 116.40914 | 15290 ft | 384 kts | 197° |
| 2026-05-06 13:32 | -31.14969 | 116.39920 | 14714 ft | 381 kts | 197° |
| 2026-05-06 13:32 | -31.17484 | 116.38926 | 14109 ft | 379 kts | 197° |
| 2026-05-06 13:32 | -31.19979 | 116.37943 | 13481 ft | 377 kts | 197° |
| 2026-05-06 13:33 | -31.22458 | 116.36963 | 12868 ft | 374 kts | 197° |
| 2026-05-06 13:33 | -31.24918 | 116.35991 | 12259 ft | 371 kts | 197° |
| 2026-05-06 13:33 | -31.27355 | 116.35030 | 11640 ft | 369 kts | 197° |
| 2026-05-06 13:33 | -31.29739 | 116.34092 | 11236 ft | 360 kts | 197° |
| 2026-05-06 13:34 | -31.32065 | 116.33175 | 11117 ft | 344 kts | 197° |
| 2026-05-06 13:34 | -31.34274 | 116.32300 | 10984 ft | 321 kts | 197° |
| 2026-05-06 13:34 | -31.36319 | 116.31487 | 10736 ft | 301 kts | 197° |
| 2026-05-06 13:34 | -31.38282 | 116.30711 | 10232 ft | 293 kts | 197° |
| 2026-05-06 13:35 | -31.40176 | 116.29968 | 9957 ft | 289 kts | 196° |
| 2026-05-06 13:35 | -31.42046 | 116.29121 | 9589 ft | 287 kts | 204° |
| 2026-05-06 13:35 | -31.43809 | 116.28021 | 9198 ft | 287 kts | 206° |
| 2026-05-06 13:35 | -31.45561 | 116.26901 | 8799 ft | 286 kts | 206° |
| 2026-05-06 13:36 | -31.47306 | 116.25786 | 8408 ft | 284 kts | 206° |
| 2026-05-06 13:36 | -31.49035 | 116.24679 | 8046 ft | 282 kts | 207° |
| 2026-05-06 13:36 | -31.50757 | 116.23576 | 7674 ft | 280 kts | 207° |
| 2026-05-06 13:36 | -31.52444 | 116.22495 | 7296 ft | 279 kts | 207° |
| 2026-05-06 13:37 | -31.54144 | 116.21405 | 6919 ft | 277 kts | 207° |
| 2026-05-06 13:37 | -31.55835 | 116.20321 | 6508 ft | 276 kts | 207° |
| 2026-05-06 13:37 | -31.57522 | 116.19242 | 6079 ft | 275 kts | 206° |
| 2026-05-06 13:37 | -31.59210 | 116.18161 | 5641 ft | 276 kts | 206° |
| 2026-05-06 13:38 | -31.60843 | 116.17113 | 5484 ft | 265 kts | 206° |
| 2026-05-06 13:38 | -31.62433 | 116.16091 | 5354 ft | 256 kts | 205° |
| 2026-05-06 13:38 | -31.64006 | 116.15085 | 5298 ft | 257 kts | 205° |
| 2026-05-06 13:38 | -31.65573 | 116.14084 | 5034 ft | 260 kts | 205° |
| 2026-05-06 13:39 | -31.67155 | 116.13070 | 4676 ft | 257 kts | 205° |
| 2026-05-06 13:39 | -31.68733 | 116.12054 | 4327 ft | 257 kts | 204° |
| 2026-05-06 13:39 | -31.70277 | 116.11061 | 3983 ft | 256 kts | 204° |
| 2026-05-06 13:39 | -31.71840 | 116.10056 | 3677 ft | 255 kts | 204° |
| 2026-05-06 13:40 | -31.73399 | 116.09054 | 3375 ft | 254 kts | 204° |
| 2026-05-06 13:40 | -31.74916 | 116.08007 | 3073 ft | 255 kts | 212° |
| 2026-05-06 13:40 | -31.76155 | 116.06540 | 2894 ft | 254 kts | 230° |
| 2026-05-06 13:40 | -31.77191 | 116.04910 | 2795 ft | 243 kts | 229° |
| 2026-05-06 13:41 | -31.78190 | 116.03354 | 2697 ft | 234 kts | 229° |
| 2026-05-06 13:41 | -31.79164 | 116.01850 | 2593 ft | 226 kts | 226° |
| 2026-05-06 13:41 | -31.80279 | 116.00695 | 2522 ft | 202 kts | 203° |
| 2026-05-06 13:41 | -31.81484 | 116.00145 | 2333 ft | 178 kts | 185° |
| 2026-05-06 13:42 | -31.82649 | 115.99806 | 2115 ft | 166 kts | 184° |
| 2026-05-06 13:42 | -31.83744 | 115.99491 | 1901 ft | 158 kts | 184° |
| 2026-05-06 13:42 | -31.84804 | 115.99185 | 1693 ft | 154 kts | 185° |
| 2026-05-06 13:42 | -31.85832 | 115.98888 | 1476 ft | 151 kts | 185° |
| 2026-05-06 13:43 | -31.86832 | 115.98598 | 1287 ft | 148 kts | 187° |
| 2026-05-06 13:43 | -31.87822 | 115.98311 | 1086 ft | 146 kts | 189° |
| 2026-05-06 13:43 | -31.88798 | 115.98027 | 896 ft | 143 kts | 191° |
| 2026-05-06 13:43 | -31.89755 | 115.97750 | 704 ft | 140 kts | 191° |
| 2026-05-06 13:44 | -31.90694 | 115.97477 | 521 ft | 139 kts | 191° |
| 2026-05-06 13:44 | -31.91625 | 115.97206 | 351 ft | 140 kts | 189° |
| 2026-05-06 13:44 | -31.92578 | 115.96925 | 173 ft | 142 kts | 191° |
| 2026-05-06 13:44 | -31.93529 | 115.96647 | 54 ft | 134 kts | 190° |
| 2026-05-06 13:45 | -31.94310 | 115.96426 | 51 ft | 92 kts | 194° |
| 2026-05-06 13:45 | -31.94848 | 115.96271 | 49 ft | 17 kts | 188° |
| 2026-05-06 13:45 | -31.94972 | 115.96233 | 49 ft | 20 kts | 193° |
| 2026-05-06 13:46 | -31.95090 | 115.96284 | 49 ft | 17 kts | 121° |
| 2026-05-06 13:46 | -31.95116 | 115.96403 | 48 ft | 12 kts | 104° |
| 2026-05-06 13:46 | -31.95134 | 115.96482 | 51 ft | 10 kts | 105° |
| 2026-05-06 13:46 | -31.95109 | 115.96543 | 51 ft | 10 kts | 20° |
| 2026-05-06 13:47 | -31.95039 | 115.96566 | 50 ft | 13 kts | 15° |
| 2026-05-06 13:47 | -31.94948 | 115.96592 | 51 ft | 14 kts | 13° |
| 2026-05-06 13:47 | -31.94853 | 115.96619 | 51 ft | 12 kts | 13° |
| 2026-05-06 13:47 | -31.94784 | 115.96637 | 51 ft | 8 kts | 13° |
| 2026-05-06 13:48 | -31.94734 | 115.96653 | 51 ft | 7 kts | 15° |
| 2026-05-06 13:48 | -31.94669 | 115.96674 | 51 ft | 11 kts | 15° |
| 2026-05-06 13:48 | -31.94577 | 115.96700 | 51 ft | 17 kts | 14° |
| 2026-05-06 13:48 | -31.94443 | 115.96740 | 51 ft | 21 kts | 14° |
| 2026-05-06 13:49 | -31.94290 | 115.96785 | 50 ft | 24 kts | 14° |
| 2026-05-06 13:49 | -31.94121 | 115.96836 | 51 ft | 26 kts | 9° |
| 2026-05-06 13:49 | -31.93952 | 115.96884 | 51 ft | 19 kts | 18° |
| 2026-05-06 13:49 | -31.93933 | 115.96990 | 51 ft | 12 kts | 128° |
| 2026-05-06 13:50 | -31.93970 | 115.96989 | 51 ft | 9 kts | 194° |
| 2026-05-06 13:50 | -31.94026 | 115.96965 | 49 ft | 7 kts | 200° |
| 2026-05-06 13:50 | -31.94030 | 115.96964 | 50 ft | 0 kts | 200° |
| 2026-05-06 13:53 | -31.94010 | 115.96980 | 51 ft | 0 kts | 205° |